createdAt,value
2022-10-29T00:00:13.024Z,314.97
2022-10-29T00:01:13.112Z,315.49
2022-10-29T00:02:12.996Z,314.85
2022-10-29T00:03:13.074Z,315.43
2022-10-29T00:04:12.979Z,315.32
2022-10-29T00:05:12.972Z,315.30
2022-10-29T00:06:12.951Z,315.05
2022-10-29T00:07:12.961Z,315.29
2022-10-29T00:08:12.975Z,314.87
2022-10-29T00:09:12.935Z,315.55
2022-10-29T00:10:12.917Z,315.24
2022-10-29T00:11:12.912Z,315.34
2022-10-29T00:12:12.949Z,314.76
2022-10-29T00:13:12.906Z,315.49
2022-10-29T00:14:12.873Z,315.45
2022-10-29T00:15:12.863Z,315.81
2022-10-29T00:16:12.840Z,315.32
2022-10-29T00:17:12.851Z,315.33
2022-10-29T00:18:12.832Z,314.99
2022-10-29T00:19:12.801Z,315.63
2022-10-29T00:20:12.821Z,315.22
2022-10-29T00:21:12.804Z,314.82
2022-10-29T00:22:12.775Z,316.31
2022-10-29T00:23:12.767Z,315.54
2022-10-29T00:24:12.768Z,315.72
2022-10-29T00:25:12.740Z,315.18
2022-10-29T00:26:12.731Z,314.85
2022-10-29T00:27:12.741Z,314.84
2022-10-29T00:28:12.715Z,316.28
2022-10-29T00:29:12.705Z,315.22
2022-10-29T00:30:12.679Z,315.87
2022-10-29T00:31:12.713Z,315.84
2022-10-29T00:32:12.741Z,315.71
2022-10-29T00:33:12.683Z,315.32
2022-10-29T00:34:12.650Z,316.08
2022-10-29T00:35:12.633Z,314.72
2022-10-29T00:36:12.624Z,316.41
2022-10-29T00:37:12.614Z,317.13
2022-10-29T00:38:12.599Z,315.40
2022-10-29T00:39:12.585Z,315.74
2022-10-29T00:40:12.565Z,316.33
2022-10-29T00:41:12.572Z,315.49
2022-10-29T00:42:12.564Z,316.78
2022-10-29T00:43:12.537Z,315.78
2022-10-29T00:44:12.531Z,315.28
2022-10-29T00:45:12.523Z,315.88
2022-10-29T00:46:12.504Z,315.65
2022-10-29T00:47:12.531Z,315.99
2022-10-29T00:48:12.482Z,316.36
2022-10-29T00:49:12.473Z,315.47
2022-10-29T00:50:12.459Z,315.18
2022-10-29T00:51:12.450Z,315.76
2022-10-29T00:52:12.439Z,316.26
2022-10-29T00:53:12.464Z,316.15
2022-10-29T00:54:12.419Z,315.58
2022-10-29T00:55:12.402Z,315.28
2022-10-29T00:56:12.397Z,316.09
2022-10-29T00:57:12.380Z,316.25
2022-10-29T00:58:12.395Z,315.81
2022-10-29T00:59:12.362Z,316.07
2022-10-29T01:00:12.356Z,315.37
2022-10-29T01:01:12.435Z,316.27
2022-10-29T01:02:12.456Z,316.14
2022-10-29T01:03:12.472Z,315.73
2022-10-29T01:04:12.316Z,315.78
2022-10-29T01:05:12.290Z,315.46
2022-10-29T01:06:12.276Z,314.88
2022-10-29T01:07:12.276Z,315.90
2022-10-29T01:08:12.749Z,316.47
2022-10-29T01:09:13.215Z,315.44
2022-10-29T01:10:12.237Z,315.05
2022-10-29T01:11:12.227Z,315.73
2022-10-29T01:12:12.232Z,315.20
2022-10-29T01:13:12.385Z,315.24
2022-10-29T01:14:12.205Z,315.55
2022-10-29T01:15:12.184Z,315.45
2022-10-29T01:16:12.176Z,315.36
2022-10-29T01:17:12.163Z,315.50
2022-10-29T01:18:12.152Z,314.85
2022-10-29T01:19:12.817Z,316.06
2022-10-29T01:20:12.125Z,315.12
2022-10-29T01:21:12.117Z,315.70
2022-10-29T01:22:12.099Z,315.20
2022-10-29T01:23:12.094Z,316.48
2022-10-29T01:24:12.094Z,316.04
2022-10-29T01:25:12.077Z,315.69
2022-10-29T01:26:12.094Z,315.72
2022-10-29T01:27:12.054Z,315.94
2022-10-29T01:28:12.038Z,315.64
2022-10-29T01:29:12.029Z,315.46
2022-10-29T01:30:12.045Z,315.51
2022-10-29T01:31:12.019Z,315.40
2022-10-29T01:32:11.993Z,315.52
2022-10-29T01:33:11.998Z,314.85
2022-10-29T01:34:11.967Z,315.22
2022-10-29T01:35:11.954Z,315.15
2022-10-29T01:36:11.963Z,315.46
2022-10-29T01:37:11.947Z,316.16
2022-10-29T01:38:11.929Z,316.65
2022-10-29T01:39:11.909Z,315.83
2022-10-29T01:40:11.909Z,315.86
2022-10-29T01:41:11.897Z,315.53
2022-10-29T01:42:11.899Z,316.37
2022-10-29T01:43:11.929Z,316.42
2022-10-29T01:44:11.859Z,316.59
2022-10-29T01:45:11.849Z,315.29
2022-10-29T01:46:11.835Z,315.49
2022-10-29T01:47:11.820Z,315.09
2022-10-29T01:48:11.815Z,315.29
2022-10-29T01:49:11.804Z,315.88
2022-10-29T01:50:11.795Z,315.12
2022-10-29T01:51:11.780Z,315.05
2022-10-29T01:52:11.779Z,316.43
2022-10-29T01:53:11.769Z,316.22
2022-10-29T01:54:11.758Z,316.80
2022-10-29T01:55:11.730Z,315.30
2022-10-29T01:56:11.713Z,315.20
2022-10-29T01:57:11.710Z,315.82
2022-10-29T01:58:11.810Z,315.73
2022-10-29T01:59:18.370Z,315.08
2022-10-29T02:00:12.681Z,315.31
2022-10-29T02:01:11.806Z,315.31
2022-10-29T02:02:11.671Z,316.24
2022-10-29T02:03:11.654Z,315.18
2022-10-29T02:04:11.633Z,315.40
2022-10-29T02:05:11.618Z,314.77
2022-10-29T02:06:11.610Z,315.55
2022-10-29T02:07:11.602Z,316.82
2022-10-29T02:08:11.621Z,315.41
2022-10-29T02:09:11.580Z,315.36
2022-10-29T02:10:11.564Z,316.49
2022-10-29T02:11:11.565Z,315.50
2022-10-29T02:12:11.540Z,315.52
2022-10-29T02:13:11.615Z,315.57
2022-10-29T02:14:11.532Z,315.44
2022-10-29T02:15:11.506Z,315.43
2022-10-29T02:16:11.493Z,315.20
2022-10-29T02:17:11.492Z,315.80
2022-10-29T02:18:11.479Z,315.12
2022-10-29T02:19:11.486Z,315.38
2022-10-29T02:20:11.510Z,315.05
2022-10-29T02:21:11.460Z,315.53
2022-10-29T02:22:11.427Z,315.90
2022-10-29T02:23:11.426Z,315.63
2022-10-29T02:24:11.424Z,315.27
2022-10-29T02:25:11.471Z,315.75
2022-10-29T02:26:11.386Z,315.52
2022-10-29T02:27:11.381Z,315.89
2022-10-29T02:28:11.383Z,315.52
2022-10-29T02:29:11.350Z,315.59
2022-10-29T02:30:11.354Z,316.19
2022-10-29T02:31:11.326Z,316.22
2022-10-29T02:32:11.310Z,315.86
2022-10-29T02:33:11.323Z,315.83
2022-10-29T02:34:11.305Z,315.42
2022-10-29T02:35:11.294Z,316.65
2022-10-29T02:36:11.297Z,316.70
2022-10-29T02:37:11.280Z,315.56
2022-10-29T02:38:11.290Z,315.86
2022-10-29T02:39:11.266Z,315.86
2022-10-29T02:40:11.224Z,315.99
2022-10-29T02:41:11.228Z,315.63
2022-10-29T02:42:11.200Z,315.99
2022-10-29T02:43:11.261Z,315.70
2022-10-29T02:44:11.188Z,316.08
2022-10-29T02:45:11.172Z,316.20
2022-10-29T02:46:11.160Z,315.35
2022-10-29T02:47:11.158Z,314.96
2022-10-29T02:48:11.136Z,315.71
2022-10-29T02:49:11.128Z,315.10
2022-10-29T02:50:11.115Z,316.73
2022-10-29T02:51:11.109Z,316.29
2022-10-29T02:52:11.113Z,316.28
2022-10-29T02:53:11.101Z,316.32
2022-10-29T02:54:11.073Z,315.61
2022-10-29T02:55:11.066Z,315.95
2022-10-29T02:56:11.044Z,315.82
2022-10-29T02:57:11.031Z,315.85
2022-10-29T02:58:11.078Z,315.79
2022-10-29T02:59:12.010Z,315.77
2022-10-29T03:00:10.999Z,311.50
2022-10-29T03:01:11.039Z,315.95
2022-10-29T03:02:11.103Z,316.80
2022-10-29T03:03:10.986Z,315.36
2022-10-29T03:04:10.967Z,316.01
2022-10-29T03:05:10.948Z,316.39
2022-10-29T03:06:10.933Z,316.73
2022-10-29T03:07:10.924Z,316.05
2022-10-29T03:08:10.911Z,315.58
2022-10-29T03:09:10.918Z,316.04
2022-10-29T03:10:10.895Z,315.20
2022-10-29T03:11:10.880Z,315.92
2022-10-29T03:12:10.864Z,315.78
2022-10-29T03:13:10.854Z,316.11
2022-10-29T03:14:10.854Z,315.61
2022-10-29T03:15:10.849Z,316.07
2022-10-29T03:16:10.821Z,314.88
2022-10-29T03:17:10.819Z,315.10
2022-10-29T03:18:10.801Z,315.74
2022-10-29T03:19:10.794Z,315.74
2022-10-29T03:20:10.801Z,315.60
2022-10-29T03:21:10.771Z,316.26
2022-10-29T03:22:10.753Z,315.77
2022-10-29T03:23:10.746Z,315.70
2022-10-29T03:24:10.758Z,315.43
2022-10-29T03:25:10.735Z,315.63
2022-10-29T03:26:10.740Z,316.02
2022-10-29T03:27:10.707Z,315.54
2022-10-29T03:28:10.691Z,315.47
2022-10-29T03:29:10.684Z,316.05
2022-10-29T03:30:10.668Z,315.63
2022-10-29T03:31:10.672Z,315.76
2022-10-29T03:32:10.687Z,316.19
2022-10-29T03:33:10.642Z,315.78
2022-10-29T03:34:10.623Z,315.83
2022-10-29T03:35:10.611Z,315.70
2022-10-29T03:36:10.760Z,315.42
2022-10-29T03:37:10.600Z,315.20
2022-10-29T03:38:10.578Z,315.68
2022-10-29T03:39:10.564Z,315.47
2022-10-29T03:40:10.556Z,315.37
2022-10-29T03:41:10.829Z,315.51
2022-10-29T03:42:10.524Z,315.20
2022-10-29T03:43:10.541Z,315.73
2022-10-29T03:44:10.513Z,315.52
2022-10-29T03:45:10.514Z,315.81
2022-10-29T03:46:10.489Z,316.63
2022-10-29T03:47:10.483Z,315.48
2022-10-29T03:48:10.472Z,316.01
2022-10-29T03:49:11.223Z,316.09
2022-10-29T03:50:10.451Z,316.78
2022-10-29T03:51:10.433Z,316.35
2022-10-29T03:52:10.418Z,316.50
2022-10-29T03:53:10.418Z,315.81
2022-10-29T03:54:10.404Z,315.95
2022-10-29T03:55:10.417Z,316.41
2022-10-29T03:56:10.369Z,316.16
2022-10-29T03:57:10.370Z,316.02
2022-10-29T03:58:10.346Z,316.11
2022-10-29T04:00:10.336Z,316.42
2022-10-29T04:01:10.453Z,316.85
2022-10-29T04:02:10.513Z,315.95
2022-10-29T04:03:10.311Z,315.62
2022-10-29T04:04:10.302Z,317.00
2022-10-29T04:05:10.311Z,316.56
2022-10-29T04:06:10.277Z,316.76
2022-10-29T04:07:10.255Z,316.77
2022-10-29T04:08:10.264Z,315.96
2022-10-29T04:09:10.245Z,316.62
2022-10-29T04:10:10.227Z,316.16
2022-10-29T04:11:10.218Z,316.72
2022-10-29T04:12:10.200Z,317.12
2022-10-29T04:13:10.228Z,316.35
2022-10-29T04:14:10.200Z,316.18
2022-10-29T04:15:10.178Z,315.74
2022-10-29T04:16:10.184Z,316.07
2022-10-29T04:17:10.791Z,316.03
2022-10-29T04:18:10.170Z,316.35
2022-10-29T04:19:10.139Z,316.08
2022-10-29T04:20:21.069Z,316.31
2022-10-29T04:24:18.805Z,315.92
2022-10-29T04:28:42.437Z,315.92
2022-10-29T04:29:11.017Z,316.76
2022-10-29T04:30:10.094Z,316.05
2022-10-29T04:31:09.989Z,315.77
2022-10-29T04:32:09.976Z,316.62
2022-10-29T04:33:09.968Z,316.24
2022-10-29T04:34:09.956Z,316.38
2022-10-29T04:35:09.954Z,316.61
2022-10-29T04:36:09.964Z,316.72
2022-10-29T04:37:09.929Z,316.32
2022-10-29T04:38:09.911Z,316.94
2022-10-29T04:39:09.914Z,316.24
2022-10-29T04:40:09.895Z,316.84
2022-10-29T04:41:09.905Z,316.75
2022-10-29T04:42:09.993Z,317.54
2022-10-29T04:43:09.855Z,316.48
2022-10-29T04:44:09.846Z,316.99
2022-10-29T04:45:09.834Z,315.90
2022-10-29T04:46:09.823Z,316.44
2022-10-29T04:47:09.832Z,317.42
2022-10-29T04:48:09.821Z,318.03
2022-10-29T04:49:09.882Z,312.14
2022-10-29T04:50:09.783Z,316.90
2022-10-29T04:51:09.778Z,316.69
2022-10-29T04:52:10.740Z,317.17
2022-10-29T04:53:09.745Z,316.91
2022-10-29T04:54:09.742Z,317.34
2022-10-29T04:55:09.720Z,316.93
2022-10-29T04:56:09.731Z,316.84
2022-10-29T04:57:09.698Z,316.59
2022-10-29T04:58:09.692Z,316.72
2022-10-29T04:59:09.672Z,316.56
2022-10-29T05:00:11.021Z,317.27
2022-10-29T05:01:09.811Z,316.87
2022-10-29T05:02:09.643Z,317.32
2022-10-29T05:03:09.635Z,316.94
2022-10-29T05:04:09.618Z,317.18
2022-10-29T05:05:09.613Z,316.75
2022-10-29T05:06:09.663Z,317.25
2022-10-29T05:07:09.606Z,317.21
2022-10-29T05:08:09.583Z,317.23
2022-10-29T05:09:09.568Z,317.16
2022-10-29T05:10:09.574Z,316.65
2022-10-29T05:11:09.569Z,316.24
2022-10-29T05:12:09.533Z,316.97
2022-10-29T05:13:09.553Z,316.58
2022-10-29T05:14:09.513Z,316.12
2022-10-29T05:15:09.507Z,316.18
2022-10-29T05:16:09.523Z,316.64
2022-10-29T05:17:09.479Z,317.44
2022-10-29T05:18:09.483Z,311.84
2022-10-29T05:19:09.451Z,316.69
2022-10-29T05:20:09.441Z,316.41
2022-10-29T05:21:09.429Z,316.66
2022-10-29T05:22:09.426Z,316.91
2022-10-29T05:23:09.408Z,316.55
2022-10-29T05:24:09.398Z,316.73
2022-10-29T05:25:09.389Z,316.74
2022-10-29T05:26:09.385Z,316.30
2022-10-29T05:27:09.383Z,316.81
2022-10-29T05:28:09.359Z,316.77
2022-10-29T05:29:09.345Z,316.31
2022-10-29T05:30:09.339Z,316.30
2022-10-29T05:31:09.321Z,317.55
2022-10-29T05:32:09.327Z,316.78
2022-10-29T05:33:09.320Z,316.23
2022-10-29T05:34:09.294Z,316.29
2022-10-29T05:35:09.272Z,316.05
2022-10-29T05:36:09.264Z,316.40
2022-10-29T05:37:09.250Z,316.79
2022-10-29T05:38:09.256Z,316.34
2022-10-29T05:39:09.232Z,316.54
2022-10-29T05:40:09.244Z,317.58
2022-10-29T05:41:09.223Z,316.71
2022-10-29T05:42:09.198Z,316.79
2022-10-29T05:43:09.231Z,316.75
2022-10-29T05:44:09.196Z,317.00
2022-10-29T05:45:09.169Z,317.35
2022-10-29T05:46:09.155Z,316.56
2022-10-29T05:47:09.137Z,316.33
2022-10-29T05:48:09.173Z,316.81
2022-10-29T05:49:09.136Z,316.76
2022-10-29T05:50:09.109Z,317.08
2022-10-29T05:51:09.103Z,317.32
2022-10-29T05:52:09.116Z,317.23
2022-10-29T05:53:09.084Z,317.28
2022-10-29T05:54:09.066Z,317.31
2022-10-29T05:55:09.064Z,317.11
2022-10-29T05:56:09.043Z,316.80
2022-10-29T05:57:09.040Z,316.95
2022-10-29T05:58:09.016Z,317.25
2022-10-29T05:59:09.011Z,317.19
2022-10-29T06:00:09.004Z,317.52
2022-10-29T06:01:09.004Z,318.11
2022-10-29T06:02:09.158Z,317.07
2022-10-29T06:03:09.028Z,317.40
2022-10-29T06:04:08.959Z,316.76
2022-10-29T06:05:08.977Z,317.04
2022-10-29T06:06:09.122Z,316.40
2022-10-29T06:07:08.918Z,317.19
2022-10-29T06:08:08.930Z,316.18
2022-10-29T06:09:08.898Z,317.35
2022-10-29T06:10:08.889Z,316.49
2022-10-29T06:11:08.881Z,317.19
2022-10-29T06:12:08.881Z,317.41
2022-10-29T06:13:08.848Z,316.08
2022-10-29T06:14:08.840Z,316.59
2022-10-29T06:15:08.833Z,317.32
2022-10-29T06:16:08.829Z,317.75
2022-10-29T06:17:08.806Z,316.58
2022-10-29T06:18:08.814Z,311.88
2022-10-29T06:19:08.780Z,317.25
2022-10-29T06:20:08.783Z,317.67
2022-10-29T06:21:08.778Z,316.83
2022-10-29T06:22:08.756Z,316.62
2022-10-29T06:23:08.746Z,317.09
2022-10-29T06:24:08.735Z,316.90
2022-10-29T06:25:08.724Z,316.58
2022-10-29T06:26:08.729Z,317.00
2022-10-29T06:27:08.705Z,317.77
2022-10-29T06:28:08.692Z,317.07
2022-10-29T06:29:08.683Z,316.42
2022-10-29T06:30:08.670Z,317.64
2022-10-29T06:31:08.667Z,318.03
2022-10-29T06:32:08.640Z,316.77
2022-10-29T06:33:08.629Z,317.05
2022-10-29T06:34:08.623Z,317.08
2022-10-29T06:35:08.635Z,316.81
2022-10-29T06:36:08.613Z,317.10
2022-10-29T06:37:08.591Z,316.86
2022-10-29T06:38:11.924Z,316.89
2022-10-29T06:39:08.564Z,316.75
2022-10-29T06:40:08.556Z,316.72
2022-10-29T06:41:08.544Z,316.41
2022-10-29T06:42:08.549Z,316.69
2022-10-29T06:43:08.526Z,317.31
2022-10-29T06:44:08.517Z,317.08
2022-10-29T06:45:08.496Z,317.37
2022-10-29T06:46:08.505Z,317.65
2022-10-29T06:47:08.473Z,316.31
2022-10-29T06:48:08.473Z,317.18
2022-10-29T06:49:08.446Z,317.50
2022-10-29T06:50:08.450Z,317.52
2022-10-29T06:51:08.477Z,317.50
2022-10-29T06:52:08.425Z,316.92
2022-10-29T06:53:08.408Z,316.48
2022-10-29T06:54:08.407Z,317.15
2022-10-29T06:55:08.381Z,317.46
2022-10-29T06:56:08.370Z,317.20
2022-10-29T06:57:08.370Z,316.59
2022-10-29T06:58:08.366Z,316.80
2022-10-29T06:59:08.360Z,316.48
2022-10-29T07:00:09.287Z,317.35
2022-10-29T07:01:08.342Z,317.21
2022-10-29T07:02:08.353Z,317.15
2022-10-29T07:03:08.298Z,317.05
2022-10-29T07:04:08.304Z,317.11
2022-10-29T07:05:08.277Z,316.57
2022-10-29T07:06:08.282Z,316.32
2022-10-29T07:07:08.255Z,315.67
2022-10-29T07:08:08.258Z,316.23
2022-10-29T07:09:08.231Z,315.56
2022-10-29T07:10:08.241Z,316.24
2022-10-29T07:11:08.206Z,315.91
2022-10-29T07:12:08.198Z,315.75
2022-10-29T07:13:08.183Z,315.83
2022-10-29T07:14:08.171Z,315.62
2022-10-29T07:15:08.164Z,316.65
2022-10-29T07:16:08.162Z,315.38
2022-10-29T07:17:08.139Z,315.50
2022-10-29T07:18:08.136Z,315.49
2022-10-29T07:19:08.125Z,315.24
2022-10-29T07:20:08.113Z,315.87
2022-10-29T07:21:08.110Z,315.64
2022-10-29T07:22:08.087Z,315.93
2022-10-29T07:23:08.080Z,316.02
2022-10-29T07:24:08.072Z,315.67
2022-10-29T07:25:08.051Z,315.43
2022-10-29T07:26:08.052Z,316.00
2022-10-29T07:27:08.072Z,315.05
2022-10-29T07:28:08.901Z,314.97
2022-10-29T07:29:08.007Z,316.44
2022-10-29T07:30:07.999Z,314.91
2022-10-29T07:31:07.997Z,315.56
2022-10-29T07:32:07.979Z,314.86
2022-10-29T07:33:07.965Z,314.90
2022-10-29T07:34:07.962Z,315.28
2022-10-29T07:35:07.936Z,314.79
2022-10-29T07:36:07.930Z,314.95
2022-10-29T07:37:08.797Z,315.45
2022-10-29T07:38:10.725Z,314.86
2022-10-29T07:39:07.895Z,314.59
2022-10-29T07:40:07.885Z,314.64
2022-10-29T07:41:07.929Z,315.73
2022-10-29T07:42:07.864Z,315.39
2022-10-29T07:43:07.881Z,315.22
2022-10-29T07:44:07.846Z,315.15
2022-10-29T07:45:07.845Z,315.30
2022-10-29T07:46:07.825Z,316.45
2022-10-29T07:47:07.807Z,314.85
2022-10-29T07:48:07.819Z,314.48
2022-10-29T07:49:07.793Z,315.79
2022-10-29T07:50:07.774Z,315.45
2022-10-29T07:51:07.766Z,314.80
2022-10-29T07:52:07.754Z,315.24
2022-10-29T07:53:07.742Z,314.52
2022-10-29T07:54:10.875Z,314.66
2022-10-29T07:55:08.715Z,314.44
2022-10-29T07:56:07.712Z,314.53
2022-10-29T07:57:07.693Z,315.04
2022-10-29T07:58:07.688Z,314.72
2022-10-29T07:59:07.686Z,314.63
2022-10-29T08:00:07.666Z,315.92
2022-10-29T08:01:07.716Z,315.41
2022-10-29T08:02:07.671Z,315.02
2022-10-29T08:03:07.635Z,314.67
2022-10-29T08:04:07.637Z,314.22
2022-10-29T08:05:07.608Z,315.11
2022-10-29T08:06:07.608Z,314.56
2022-10-29T08:07:07.583Z,315.13
2022-10-29T08:08:07.597Z,314.54
2022-10-29T08:09:07.560Z,315.03
2022-10-29T08:10:07.562Z,314.70
2022-10-29T08:11:07.533Z,314.82
2022-10-29T08:12:07.536Z,314.51
2022-10-29T08:13:07.515Z,313.03
2022-10-29T08:14:07.507Z,314.03
2022-10-29T08:15:07.492Z,314.56
2022-10-29T08:16:07.504Z,312.36
2022-10-29T08:17:07.475Z,313.53
2022-10-29T08:18:07.466Z,311.32
2022-10-29T08:19:07.451Z,312.25
2022-10-29T08:20:07.466Z,311.93
2022-10-29T08:21:07.449Z,310.61
2022-10-29T08:22:07.434Z,311.64
2022-10-29T08:23:07.408Z,311.39
2022-10-29T08:24:07.403Z,311.13
2022-10-29T08:25:07.381Z,310.44
2022-10-29T08:26:07.397Z,310.72
2022-10-29T08:27:07.377Z,310.89
2022-10-29T08:28:07.389Z,311.19
2022-10-29T08:29:07.341Z,310.56
2022-10-29T08:30:07.336Z,311.32
2022-10-29T08:31:07.318Z,311.87
2022-10-29T08:32:07.340Z,311.92
2022-10-29T08:33:07.309Z,309.05
2022-10-29T08:34:11.099Z,310.24
2022-10-29T08:35:07.267Z,311.45
2022-10-29T08:36:07.270Z,311.24
2022-10-29T08:37:07.263Z,310.18
2022-10-29T08:38:07.241Z,310.73
2022-10-29T08:39:07.231Z,310.40
2022-10-29T08:40:07.221Z,310.78
2022-10-29T08:41:07.233Z,311.26
2022-10-29T08:42:07.200Z,312.57
2022-10-29T08:43:07.201Z,312.61
2022-10-29T08:44:07.185Z,314.21
2022-10-29T08:45:07.171Z,315.62
2022-10-29T08:46:07.160Z,317.42
2022-10-29T08:47:08.013Z,316.22
2022-10-29T08:48:07.146Z,316.87
2022-10-29T08:49:07.120Z,316.91
2022-10-29T08:50:07.109Z,317.99
2022-10-29T08:51:07.114Z,317.01
2022-10-29T08:52:07.089Z,317.98
2022-10-29T08:53:24.004Z,318.11
2022-10-29T08:54:29.998Z,316.63
2022-10-29T08:55:08.058Z,317.03
2022-10-29T08:56:07.051Z,317.93
2022-10-29T08:57:07.028Z,317.12
2022-10-29T08:58:07.033Z,317.88
2022-10-29T08:59:07.035Z,316.77
2022-10-29T09:01:07.040Z,317.41
2022-10-29T09:02:07.044Z,318.15
2022-10-29T09:03:06.964Z,318.79
2022-10-29T09:04:06.942Z,318.15
2022-10-29T09:05:06.958Z,316.57
2022-10-29T09:06:06.925Z,317.42
2022-10-29T09:07:06.917Z,317.41
2022-10-29T09:08:06.905Z,317.88
2022-10-29T09:09:06.888Z,317.46
2022-10-29T09:10:06.925Z,317.12
2022-10-29T09:11:06.878Z,317.40
2022-10-29T09:12:06.872Z,318.04
2022-10-29T09:13:06.907Z,315.84
2022-10-29T09:14:07.839Z,317.23
2022-10-29T09:15:06.830Z,318.52
2022-10-29T09:16:06.831Z,318.40
2022-10-29T09:17:08.288Z,318.83
2022-10-29T09:18:06.795Z,318.05
2022-10-29T09:19:06.774Z,318.97
2022-10-29T09:20:06.769Z,317.95
2022-10-29T09:21:06.766Z,318.23
2022-10-29T09:22:06.742Z,317.70
2022-10-29T09:23:06.735Z,317.65
2022-10-29T09:24:06.721Z,316.83
2022-10-29T09:25:06.715Z,317.31
2022-10-29T09:26:06.699Z,317.88
2022-10-29T09:27:09.756Z,317.82
2022-10-29T09:28:06.682Z,318.72
2022-10-29T09:29:06.668Z,319.78
2022-10-29T09:30:06.656Z,318.28
2022-10-29T09:31:06.639Z,318.42
2022-10-29T09:32:06.639Z,319.62
2022-10-29T09:33:06.615Z,318.75
2022-10-29T09:34:06.603Z,317.48
2022-10-29T09:35:06.702Z,318.88
2022-10-29T09:36:06.580Z,320.41
2022-10-29T09:37:06.590Z,318.86
2022-10-29T09:38:06.595Z,313.76
2022-10-29T09:39:06.583Z,315.13
2022-10-29T09:40:06.615Z,313.02
2022-10-29T09:41:06.583Z,314.80
2022-10-29T09:42:06.592Z,314.10
2022-10-29T09:43:06.524Z,312.76
2022-10-29T09:44:06.522Z,314.22
2022-10-29T09:45:06.539Z,314.27
2022-10-29T09:46:06.501Z,313.95
2022-10-29T09:47:09.642Z,312.79
2022-10-29T09:48:06.493Z,315.27
2022-10-29T09:50:08.751Z,312.98
2022-10-29T09:51:06.472Z,314.03
2022-10-29T09:52:06.420Z,313.10
2022-10-29T09:53:06.427Z,313.02
2022-10-29T09:54:06.469Z,313.56
2022-10-29T09:55:06.378Z,314.35
2022-10-29T09:56:06.356Z,312.59
2022-10-29T09:57:06.357Z,313.87
2022-10-29T09:58:06.342Z,313.31
2022-10-29T09:59:06.356Z,314.30
2022-10-29T10:00:06.329Z,314.10
2022-10-29T10:01:06.310Z,313.23
2022-10-29T10:02:06.454Z,314.89
2022-10-29T10:03:06.347Z,315.22
2022-10-29T10:04:06.279Z,313.75
2022-10-29T10:05:06.256Z,311.62
2022-10-29T10:06:06.263Z,313.26
2022-10-29T10:07:06.241Z,313.34
2022-10-29T10:08:06.228Z,312.87
2022-10-29T10:09:06.218Z,313.92
2022-10-29T10:10:06.222Z,313.67
2022-10-29T10:11:06.198Z,313.19
2022-10-29T10:12:06.195Z,313.14
2022-10-29T10:13:06.183Z,313.61
2022-10-29T10:14:06.167Z,313.80
2022-10-29T10:15:06.146Z,313.67
2022-10-29T10:16:06.205Z,313.86
2022-10-29T10:17:06.131Z,314.14
2022-10-29T10:18:06.119Z,315.65
2022-10-29T10:19:06.109Z,315.24
2022-10-29T10:20:06.096Z,314.97
2022-10-29T10:21:06.090Z,313.08
2022-10-29T10:22:06.102Z,314.03
2022-10-29T10:23:06.868Z,314.99
2022-10-29T10:24:06.060Z,314.12
2022-10-29T10:25:06.104Z,314.74
2022-10-29T10:26:06.065Z,314.68
2022-10-29T10:27:06.028Z,311.41
2022-10-29T10:28:06.025Z,314.95
2022-10-29T10:29:05.992Z,315.12
2022-10-29T10:30:05.983Z,314.35
2022-10-29T10:31:05.982Z,314.47
2022-10-29T10:32:05.970Z,315.98
2022-10-29T10:33:05.952Z,315.35
2022-10-29T10:34:05.950Z,313.98
2022-10-29T10:35:05.936Z,314.75
2022-10-29T10:36:05.937Z,314.28
2022-10-29T10:37:05.964Z,315.56
2022-10-29T10:38:05.897Z,314.86
2022-10-29T10:39:05.886Z,315.68
2022-10-29T10:40:05.893Z,314.80
2022-10-29T10:41:05.862Z,315.51
2022-10-29T10:42:05.867Z,316.47
2022-10-29T10:43:08.288Z,314.96
2022-10-29T10:44:05.851Z,313.72
2022-10-29T10:45:05.821Z,315.00
2022-10-29T10:46:05.802Z,314.08
2022-10-29T10:47:06.481Z,315.61
2022-10-29T10:48:05.909Z,315.11
2022-10-29T10:49:05.789Z,315.54
2022-10-29T10:50:05.771Z,316.60
2022-10-29T10:51:05.759Z,316.11
2022-10-29T10:52:05.743Z,316.69
2022-10-29T10:53:05.745Z,314.95
2022-10-29T10:54:05.746Z,316.66
2022-10-29T10:55:05.714Z,315.11
2022-10-29T10:56:05.702Z,315.39
2022-10-29T10:57:05.708Z,315.45
2022-10-29T10:58:05.672Z,315.84
2022-10-29T10:59:05.686Z,315.46
2022-10-29T11:00:05.657Z,315.76
2022-10-29T11:01:05.730Z,315.40
2022-10-29T11:02:05.710Z,316.02
2022-10-29T11:03:05.629Z,315.50
2022-10-29T11:04:05.625Z,314.84
2022-10-29T11:05:07.945Z,316.19
2022-10-29T11:06:05.615Z,316.54
2022-10-29T11:07:05.589Z,315.35
2022-10-29T11:08:05.573Z,315.95
2022-10-29T11:09:05.576Z,314.93
2022-10-29T11:10:05.557Z,316.12
2022-10-29T11:11:05.552Z,314.99
2022-10-29T11:12:05.525Z,314.97
2022-10-29T11:13:05.515Z,314.05
2022-10-29T11:14:05.504Z,314.18
2022-10-29T11:15:05.498Z,314.55
2022-10-29T11:16:05.495Z,314.77
2022-10-29T11:17:05.485Z,314.16
2022-10-29T11:18:05.531Z,315.96
2022-10-29T11:19:05.449Z,314.63
2022-10-29T11:20:05.430Z,315.06
2022-10-29T11:21:05.439Z,315.63
2022-10-29T11:22:05.415Z,315.24
2022-10-29T11:23:05.404Z,315.06
2022-10-29T11:24:05.405Z,315.31
2022-10-29T11:25:05.394Z,311.87
2022-10-29T11:26:05.390Z,312.25
2022-10-29T11:27:05.361Z,311.98
2022-10-29T11:28:05.359Z,313.88
2022-10-29T11:29:05.367Z,313.42
2022-10-29T11:30:05.340Z,313.75
2022-10-29T11:31:05.322Z,313.60
2022-10-29T11:32:05.331Z,315.99
2022-10-29T11:33:05.340Z,311.12
2022-10-29T11:34:05.288Z,311.44
2022-10-29T11:35:05.287Z,311.14
2022-10-29T11:36:05.261Z,311.19
2022-10-29T11:37:05.268Z,312.96
2022-10-29T11:38:05.267Z,312.15
2022-10-29T11:39:05.230Z,313.13
2022-10-29T11:40:05.261Z,312.91
2022-10-29T11:41:05.222Z,313.76
2022-10-29T11:42:05.218Z,313.25
2022-10-29T11:43:08.523Z,313.58
2022-10-29T11:44:05.167Z,314.25
2022-10-29T11:45:05.169Z,314.35
2022-10-29T11:46:05.151Z,313.62
2022-10-29T11:47:05.161Z,314.00
2022-10-29T11:48:05.187Z,315.10
2022-10-29T11:49:05.142Z,314.73
2022-10-29T11:50:05.115Z,314.65
2022-10-29T11:51:05.100Z,314.54
2022-10-29T11:52:05.110Z,314.67
2022-10-29T11:53:05.077Z,314.66
2022-10-29T11:54:05.063Z,314.05
2022-10-29T11:55:05.056Z,314.78
2022-10-29T11:56:05.045Z,313.71
2022-10-29T11:57:05.039Z,314.78
2022-10-29T11:58:05.046Z,314.67
2022-10-29T11:59:05.006Z,315.44
2022-10-29T12:00:04.990Z,313.09
2022-10-29T12:01:04.993Z,314.44
2022-10-29T12:02:05.056Z,315.28
2022-10-29T12:03:04.988Z,314.32
2022-10-29T12:04:04.995Z,313.91
2022-10-29T12:05:04.980Z,313.94
2022-10-29T12:06:04.927Z,314.10
2022-10-29T12:07:04.927Z,315.66
2022-10-29T12:08:04.921Z,311.90
2022-10-29T12:09:04.893Z,311.69
2022-10-29T12:10:04.878Z,312.59
2022-10-29T12:11:04.871Z,314.24
2022-10-29T12:12:04.862Z,314.65
2022-10-29T12:13:04.852Z,314.50
2022-10-29T12:14:04.854Z,314.94
2022-10-29T12:15:04.826Z,315.53
2022-10-29T12:16:04.823Z,314.62
2022-10-29T12:17:04.818Z,314.15
2022-10-29T12:18:04.828Z,314.32
2022-10-29T12:19:04.796Z,315.80
2022-10-29T12:21:04.758Z,313.61
2022-10-29T12:22:04.768Z,315.41
2022-10-29T12:23:08.003Z,314.71
2022-10-29T12:24:05.725Z,315.56
2022-10-29T12:25:04.727Z,314.50
2022-10-29T12:26:04.739Z,314.33
2022-10-29T12:27:04.698Z,315.79
2022-10-29T12:28:04.685Z,313.67
2022-10-29T12:29:04.681Z,315.41
2022-10-29T12:30:04.660Z,314.47
2022-10-29T12:31:04.648Z,316.24
2022-10-29T12:32:04.650Z,315.58
2022-10-29T12:33:05.439Z,314.77
2022-10-29T12:34:04.620Z,316.40
2022-10-29T12:35:04.674Z,315.38
2022-10-29T12:36:04.599Z,314.36
2022-10-29T12:37:04.582Z,314.53
2022-10-29T12:38:04.585Z,314.35